Time;durP1;ratioP1;P1;durP2;ratioP2;P2;SDS_P1;SDS_P2;PMS_P1;PMS_P2;Temp;Humidity;BMP_temperature;BMP_pressure;BME280_temperature;BME280_humidity;BME280_pressure;Samples;Min_cycle;Max_cycle;Signal;HPM_P1;HPM_P2
2023/01/01 00:01:45;;;;;;;12.00;10.80;;;17.30;69.80;18.30;100340.00;;;;5014956;28;20202;-50
2023/01/01 00:04:13;;;;;;;12.27;10.70;;;17.20;69.70;18.30;100324.00;;;;5013472;28;20200;-48
2023/01/01 00:06:39;;;;;;;11.93;10.73;;;17.30;69.90;18.30;100273.00;;;;5012644;28;20216;-47
2023/01/01 00:11:49;;;;;;;13.77;10.67;;;17.30;69.50;17.80;100356.00;;;;5015230;28;20297;-47
2023/01/01 00:14:14;;;;;;;13.73;11.43;;;17.40;69.40;18.30;100351.00;;;;5009892;28;20775;-47
2023/01/01 00:16:40;;;;;;;12.77;11.33;;;17.40;69.30;18.30;100353.00;;;;5030224;28;20184;-47
2023/01/01 00:19:06;;;;;;;12.97;11.00;;;17.40;69.20;18.20;100344.00;;;;4997213;28;20181;-49
2023/01/01 00:21:32;;;;;;;14.63;11.80;;;17.40;69.20;18.30;100277.00;;;;4995331;28;20185;-48
2023/01/01 00:23:57;;;;;;;13.47;11.50;;;17.40;70.00;18.30;100333.00;;;;4995426;28;20270;-47
2023/01/01 00:26:23;;;;;;;13.50;11.77;;;17.40;69.30;18.30;100306.00;;;;4994557;28;20183;-48
2023/01/01 00:28:49;;;;;;;13.47;11.63;;;17.30;69.10;18.30;100273.00;;;;4995572;28;20167;-48
2023/01/01 00:31:18;;;;;;;13.87;12.23;;;17.30;69.20;18.30;100276.00;;;;4992496;28;20232;-49
2023/01/01 00:33:53;;;;;;;14.80;11.80;;;17.30;69.40;18.30;100355.00;;;;4992396;28;20193;-48
2023/01/01 00:36:20;;;;;;;12.83;11.17;;;17.20;69.40;18.30;100359.00;;;;4992658;28;20170;-48
2023/01/01 00:38:46;;;;;;;15.20;12.33;;;17.20;69.40;18.30;100373.00;;;;4992931;28;20350;-49
2023/01/01 00:41:12;;;;;;;14.67;13.10;;;17.20;69.40;18.30;100378.00;;;;4992971;28;20182;-48
2023/01/01 00:43:38;;;;;;;14.40;12.37;;;17.20;69.40;18.30;100354.00;;;;4977580;28;20284;-48
2023/01/01 00:46:04;;;;;;;13.50;12.10;;;17.20;69.50;18.30;100289.00;;;;4977918;28;20378;-47
2023/01/01 00:48:30;;;;;;;14.37;12.17;;;17.20;69.40;18.30;100361.00;;;;4994101;28;20638;-48
2023/01/01 00:50:56;;;;;;;13.77;11.43;;;17.20;69.40;18.30;100367.00;;;;4977849;28;20194;-48
2023/01/01 00:53:21;;;;;;;13.90;12.50;;;17.10;69.30;18.30;100303.00;;;;4991531;28;20190;-47
2023/01/01 00:55:48;;;;;;;13.70;12.30;;;17.20;69.40;18.30;100374.00;;;;4974884;28;20207;-48
2023/01/01 00:58:14;;;;;;;14.57;12.77;;;17.10;69.30;18.20;100352.00;;;;4974292;28;20205;-48
2023/01/01 01:00:40;;;;;;;13.13;11.80;;;17.10;69.40;18.20;100283.00;;;;4974952;28;20177;-48
2023/01/01 01:03:06;;;;;;;13.47;12.17;;;17.10;69.20;18.20;100372.00;;;;4990522;28;20227;-49
2023/01/01 01:05:32;;;;;;;13.13;11.83;;;17.10;69.20;18.30;100302.00;;;;4974445;28;20174;-48
2023/01/01 01:07:58;;;;;;;13.70;12.33;;;17.10;69.20;18.30;100366.00;;;;4990788;28;20287;-49
2023/01/01 01:10:24;;;;;;;12.93;11.60;;;17.10;69.20;18.30;100300.00;;;;4990921;28;20259;-49
2023/01/01 01:12:51;;;;;;;12.83;11.53;;;17.10;69.20;18.30;100369.00;;;;4990467;28;20200;-47
2023/01/01 01:15:17;;;;;;;12.47;11.27;;;17.10;69.20;18.20;100371.00;;;;4990688;28;20744;-48
2023/01/01 01:17:43;;;;;;;12.93;11.73;;;17.10;69.10;18.20;100376.00;;;;4990245;28;20205;-47
2023/01/01 01:20:09;;;;;;;12.50;11.30;;;17.10;69.00;18.20;100263.00;;;;4992397;28;20220;-48
2023/01/01 01:22:35;;;;;;;12.40;11.27;;;17.10;69.00;18.20;100373.00;;;;4958692;28;20178;-47
2023/01/01 01:25:01;;;;;;;12.33;11.13;;;17.10;69.00;18.20;100376.00;;;;4991209;28;20663;-49
2023/01/01 01:27:26;;;;;;;13.10;11.90;;;17.10;69.00;18.20;100370.00;;;;4990121;28;20235;-47
2023/01/01 01:29:52;;;;;;;12.13;10.97;;;17.10;68.90;18.20;100389.00;;;;4992761;28;20215;-47
2023/01/01 01:32:18;;;;;;;12.07;10.87;;;17.00;68.90;18.20;100375.00;;;;5004596;28;20185;-49
2023/01/01 01:34:44;;;;;;;12.27;11.07;;;17.00;68.90;18.20;100387.00;;;;5002861;28;20301;-49
2023/01/01 01:37:10;;;;;;;12.63;11.33;;;17.10;69.00;18.20;100307.00;;;;4997839;28;20210;-48
2023/01/01 01:39:37;;;;;;;12.10;10.90;;;17.00;69.60;18.20;100384.00;;;;4992369;28;20654;-48
2023/01/01 01:42:03;;;;;;;12.00;10.70;;;17.00;68.80;18.20;100299.00;;;;4993859;28;20177;-48
2023/01/01 01:44:53;;;;;;;11.80;10.63;;;17.00;68.80;18.20;100401.00;;;;4990049;28;20205;-48
2023/01/01 01:47:31;;;;;;;11.50;10.40;;;17.00;68.90;18.20;100397.00;;;;4990296;28;20182;-48
2023/01/01 01:50:09;;;;;;;11.77;10.67;;;17.00;68.80;18.20;100408.00;;;;4991162;28;20471;-47
2023/01/01 01:52:37;;;;;;;11.67;10.67;;;17.00;68.80;18.10;100338.00;;;;4989738;28;20169;-48
2023/01/01 01:55:04;;;;;;;11.10;10.10;;;17.00;68.80;18.20;100411.00;;;;4973532;28;20674;-49
2023/01/01 01:57:30;;;;;;;11.30;10.30;;;17.00;68.80;18.20;100420.00;;;;4973639;28;20210;-49
2023/01/01 01:59:55;;;;;;;10.80;9.90;;;17.00;68.80;18.20;100411.00;;;;4973447;28;20263;-48
2023/01/01 02:02:30;;;;;;;10.97;9.97;;;17.00;68.80;18.20;100422.00;;;;4989999;28;20224;-49
2023/01/01 02:04:56;;;;;;;10.80;9.90;;;17.00;69.60;18.10;100425.00;;;;4989426;28;20164;-49
2023/01/01 02:07:21;;;;;;;10.80;9.80;;;17.00;68.80;18.10;100427.00;;;;4989495;28;20193;-48
2023/01/01 02:09:47;;;;;;;11.40;10.30;;;17.00;68.80;18.10;100414.00;;;;4989579;28;20188;-49
2023/01/01 02:12:13;;;;;;;10.90;9.90;;;17.00;68.70;18.10;100420.00;;;;4989371;28;20185;-48
2023/01/01 02:14:39;;;;;;;10.53;9.57;;;17.00;68.60;18.10;100418.00;;;;4989305;28;20277;-49
2023/01/01 02:17:55;;;;;;;10.90;9.80;;;16.90;68.50;18.10;100429.00;;;;4989448;28;20291;-49
2023/01/01 02:20:33;;;;;;;10.63;9.70;;;17.00;68.60;18.10;100430.00;;;;4988879;28;20192;-48
2023/01/01 02:23:13;;;;;;;10.10;9.10;;;17.00;68.70;18.10;100422.00;;;;4989631;28;20228;-48
2023/01/01 02:26:00;;;;;;;10.70;9.70;;;17.00;68.70;18.00;100424.00;;;;4990679;28;20281;-48
2023/01/01 02:28:57;;;;;;;9.97;9.07;;;17.00;68.60;18.10;100359.00;;;;4989974;28;20170;-49
2023/01/01 02:31:27;;;;;;;10.40;9.40;;;16.90;68.50;18.10;100432.00;;;;4991001;28;20196;-49
2023/01/01 02:33:55;;;;;;;9.50;8.70;;;16.90;68.50;18.10;100410.00;;;;4988738;28;20246;-48
2023/01/01 02:36:22;;;;;;;10.07;9.17;;;16.90;68.50;18.10;100413.00;;;;4989015;28;20184;-48
2023/01/01 02:38:50;;;;;;;10.20;9.23;;;16.90;68.50;18.10;100412.00;;;;4972717;28;20742;-49
2023/01/01 02:41:25;;;;;;;9.17;8.30;;;16.90;68.50;18.10;100298.00;;;;4988510;28;20651;-47
2023/01/01 02:43:51;;;;;;;9.57;8.67;;;16.90;68.40;18.10;100419.00;;;;4988416;28;20202;-48
2023/01/01 02:46:17;;;;;;;9.30;8.43;;;16.90;68.30;18.00;100427.00;;;;4988779;28;20325;-48
2023/01/01 02:48:48;;;;;;;9.07;8.27;;;16.90;68.20;17.80;100419.00;;;;4972869;28;20179;-48
2023/01/01 02:51:22;;;;;;;8.93;8.13;;;16.90;68.30;18.00;100418.00;;;;4989063;28;20192;-47
2023/01/01 02:54:17;;;;;;;9.50;8.70;;;16.90;68.40;18.00;100420.00;;;;4990276;28;20196;-48
2023/01/01 02:57:13;;;;;;;9.10;8.30;;;16.90;68.40;18.00;100421.00;;;;4988788;28;20269;-48
2023/01/01 03:02:46;;;;;;;8.77;8.07;;;16.90;68.30;18.00;100420.00;;;;4990649;28;20215;-48
2023/01/01 03:05:27;;;;;;;8.90;7.97;;;16.90;68.20;18.00;100410.00;;;;4990095;28;20474;-49
2023/01/01 03:08:05;;;;;;;8.73;8.03;;;16.90;68.30;18.00;100436.00;;;;4990325;28;20170;-47
2023/01/01 03:10:50;;;;;;;8.53;7.83;;;16.90;68.30;18.00;100425.00;;;;4988371;28;20703;-49
2023/01/01 03:13:33;;;;;;;8.90;8.10;;;16.90;68.20;18.00;100350.00;;;;4988304;28;20219;-48
2023/01/01 03:16:28;;;;;;;8.77;7.97;;;16.80;68.10;18.00;100345.00;;;;4988363;28;20168;-48
2023/01/01 03:19:11;;;;;;;8.37;7.57;;;16.80;68.10;17.90;100416.00;;;;4988560;28;20311;-49
2023/01/01 03:21:50;;;;;;;8.43;7.63;;;16.90;68.20;18.00;100342.00;;;;4987939;28;20176;-48
2023/01/01 03:24:36;;;;;;;8.47;7.67;;;16.90;68.20;18.00;100408.00;;;;4988236;28;20320;-49
2023/01/01 03:27:10;;;;;;;8.33;7.53;;;16.90;68.20;17.90;100415.00;;;;4988068;28;20205;-47
2023/01/01 03:29:39;;;;;;;8.50;7.80;;;16.80;68.10;17.90;100412.00;;;;4988440;28;20176;-48
2023/01/01 03:32:05;;;;;;;8.20;7.50;;;16.90;68.10;17.90;100429.00;;;;4971790;28;20192;-48
2023/01/01 03:34:37;;;;;;;7.83;7.13;;;16.80;68.00;17.90;100430.00;;;;4988076;28;20196;-47
2023/01/01 03:37:06;;;;;;;7.80;7.17;;;16.80;68.00;17.90;100446.00;;;;4973144;28;20215;-49
2023/01/01 03:39:44;;;;;;;7.97;7.17;;;16.80;67.90;17.90;100376.00;;;;4989633;28;20266;-48
2023/01/01 03:42:33;;;;;;;7.90;7.20;;;16.90;68.00;17.90;100456.00;;;;4971716;28;20162;-48
2023/01/01 03:45:23;;;;;;;7.57;6.93;;;16.80;67.90;17.90;100379.00;;;;4988462;28;20159;-48
2023/01/01 03:47:49;;;;;;;7.33;6.70;;;16.90;68.00;17.90;100437.00;;;;4972394;28;20797;-47
2023/01/01 03:50:15;;;;;;;7.67;6.97;;;16.90;67.90;17.90;100367.00;;;;4987842;28;20184;-48
2023/01/01 03:52:51;;;;;;;7.70;7.10;;;16.90;67.80;17.90;100444.00;;;;4987567;28;20224;-47
2023/01/01 03:55:40;;;;;;;7.47;6.80;;;16.80;67.90;17.90;100440.00;;;;4987874;28;20212;-48
2023/01/01 03:58:12;;;;;;;7.47;6.77;;;16.80;68.00;17.90;100437.00;;;;4971508;28;20215;-48
2023/01/01 04:00:45;;;;;;;7.47;6.63;;;16.80;67.90;17.90;100446.00;;;;4972192;28;20188;-47
2023/01/01 04:03:22;;;;;;;7.23;6.63;;;16.80;67.90;17.90;100437.00;;;;4987770;28;20259;-48
2023/01/01 04:05:48;;;;;;;6.90;6.30;;;16.80;67.90;17.90;100441.00;;;;4971718;28;20193;-48
2023/01/01 04:08:14;;;;;;;7.07;6.47;;;16.80;67.80;17.90;100457.00;;;;4987707;28;20177;-48
2023/01/01 04:10:53;;;;;;;6.70;6.10;;;16.80;67.90;17.90;100369.00;;;;4971973;28;20323;-48
2023/01/01 04:13:19;;;;;;;6.30;5.80;;;16.80;67.80;17.90;100463.00;;;;4987642;28;20201;-50
2023/01/01 04:15:45;;;;;;;6.70;6.10;;;16.80;67.80;17.90;100463.00;;;;4989325;28;20188;-48
2023/01/01 04:18:11;;;;;;;7.13;6.50;;;16.80;67.70;17.90;100467.00;;;;4987812;28;20616;-49
2023/01/01 04:20:36;;;;;;;7.00;6.40;;;16.80;67.80;17.90;100466.00;;;;4987719;28;20196;-47
2023/01/01 04:23:02;;;;;;;6.97;6.27;;;16.80;67.80;17.90;100461.00;;;;4990796;28;20260;-48
2023/01/01 04:25:28;;;;;;;8.23;6.00;;;16.70;67.70;17.90;100476.00;;;;4969843;28;20181;-48
2023/01/01 04:27:54;;;;;;;6.37;5.50;;;16.80;69.10;17.90;100473.00;;;;4981328;28;20730;-48
2023/01/01 04:30:21;;;;;;;8.00;5.83;;;16.80;67.90;17.90;100477.00;;;;4964131;28;20733;-52
2023/01/01 04:32:47;;;;;;;6.63;5.00;;;16.90;67.30;17.90;100464.00;;;;4991029;28;20172;-48
2023/01/01 04:35:13;;;;;;;5.37;4.87;;;16.90;67.10;17.90;100467.00;;;;4992292;28;20227;-47
2023/01/01 04:37:40;;;;;;;5.13;4.57;;;16.80;66.50;17.90;100462.00;;;;4974847;28;20593;-48
2023/01/01 04:40:07;;;;;;;5.13;4.63;;;16.80;66.00;17.90;100463.00;;;;4991113;28;20237;-48
2023/01/01 04:42:33;;;;;;;4.97;4.40;;;16.80;65.30;17.90;100451.00;;;;4990246;28;20189;-48
2023/01/01 04:44:58;;;;;;;7.80;4.10;;;16.70;64.30;17.90;100445.00;;;;4974940;28;20196;-50
2023/01/01 04:47:25;;;;;;;7.83;4.07;;;16.70;63.90;17.90;100456.00;;;;4958768;28;20704;-48
2023/01/01 04:49:52;;;;;;;6.07;4.23;;;16.70;63.40;17.90;100459.00;;;;4958867;28;20268;-47
2023/01/01 04:52:18;;;;;;;5.37;4.00;;;16.80;64.60;17.90;100394.00;;;;4990619;28;20180;-48
2023/01/01 04:54:44;;;;;;;4.27;3.60;;;16.70;64.90;17.90;100468.00;;;;4974503;28;20669;-48
2023/01/01 04:57:09;;;;;;;5.93;3.80;;;16.80;64.80;18.00;100464.00;;;;4990299;28;20254;-49
2023/01/01 04:59:35;;;;;;;6.37;3.70;;;16.90;64.30;18.00;100451.00;;;;4974678;28;20189;-48
2023/01/01 05:02:01;;;;;;;4.03;3.63;;;16.90;63.70;17.80;100469.00;;;;4974687;28;20207;-48
2023/01/01 05:04:27;;;;;;;7.90;3.67;;;17.00;63.40;18.10;100465.00;;;;4958642;28;20298;-48
2023/01/01 05:06:52;;;;;;;4.07;3.47;;;17.10;63.10;18.10;100462.00;;;;4990812;28;20768;-49
2023/01/01 05:09:18;;;;;;;5.23;3.30;;;17.20;62.90;18.20;100466.00;;;;4974546;28;20265;-48
2023/01/01 05:11:44;;;;;;;7.20;3.60;;;17.20;62.40;18.20;100476.00;;;;4974171;28;20181;-48
2023/01/01 05:14:10;;;;;;;4.33;3.03;;;17.30;62.20;18.20;100483.00;;;;4974558;28;20207;-47
2023/01/01 05:16:37;;;;;;;6.73;3.20;;;17.40;62.10;18.30;100409.00;;;;4990766;28;20179;-49
2023/01/01 05:19:03;;;;;;;5.07;2.90;;;17.40;62.00;18.30;100459.00;;;;4981473;28;20204;-49
2023/01/01 05:21:31;;;;;;;4.03;2.90;;;17.40;62.10;18.30;100477.00;;;;5004395;28;20561;-49
2023/01/01 05:23:59;;;;;;;3.00;2.70;;;17.40;61.70;18.40;100480.00;;;;5009909;28;20195;-48
2023/01/01 05:26:27;;;;;;;8.33;2.90;;;17.50;61.80;18.40;100497.00;;;;5010654;28;20171;-48
2023/01/01 05:28:54;;;;;;;3.50;2.70;;;17.50;61.70;18.40;100486.00;;;;5009853;28;20195;-49
2023/01/01 05:31:22;;;;;;;4.63;2.83;;;17.60;61.80;18.50;100476.00;;;;5006910;28;20813;-47
2023/01/01 05:33:48;;;;;;;4.80;2.70;;;17.50;61.40;18.50;100487.00;;;;4974097;28;20208;-48
2023/01/01 05:36:26;;;;;;;4.17;2.60;;;17.60;61.40;18.50;100484.00;;;;4991614;28;20183;-49
2023/01/01 05:38:52;;;;;;;3.60;2.70;;;17.50;61.30;18.50;100504.00;;;;4979981;28;20306;-48
2023/01/01 05:41:18;;;;;;;5.27;2.60;;;17.60;61.30;18.50;100489.00;;;;4991645;28;20194;-48
2023/01/01 05:43:44;;;;;;;6.50;2.60;;;17.60;61.40;18.50;100467.00;;;;4997701;28;20268;-53
2023/01/01 05:46:21;;;;;;;8.13;3.00;;;17.60;61.30;18.60;100499.00;;;;4994853;28;20187;-48
2023/01/01 05:48:47;;;;;;;12.67;3.10;;;17.60;61.50;18.60;100511.00;;;;5011647;28;20232;-49
2023/01/01 05:51:19;;;;;;;5.80;2.63;;;17.70;61.50;18.60;100505.00;;;;5008942;28;20548;-48
2023/01/01 05:53:45;;;;;;;7.23;2.90;;;17.70;61.70;18.60;100502.00;;;;4992461;28;20358;-48
2023/01/01 05:56:12;;;;;;;11.97;2.93;;;17.70;61.80;18.60;100487.00;;;;5008723;28;20629;-48
2023/01/01 05:58:37;;;;;;;7.10;2.83;;;17.70;62.00;18.60;100509.00;;;;5008586;28;20198;-48
2023/01/01 06:01:12;;;;;;;7.73;2.97;;;17.70;62.10;18.60;100517.00;;;;5008491;28;20276;-47
2023/01/01 06:03:38;;;;;;;8.63;2.70;;;17.60;61.50;18.30;100536.00;;;;5008695;28;20244;-47
2023/01/01 06:06:12;;;;;;;6.40;2.77;;;17.50;61.40;18.60;100459.00;;;;4992139;28;20193;-48
2023/01/01 06:08:38;;;;;;;5.93;2.60;;;17.50;61.30;18.50;100573.00;;;;4992373;28;20735;-48
2023/01/01 06:11:06;;;;;;;4.93;2.70;;;17.40;60.60;18.50;100566.00;;;;5008875;28;20174;-48
2023/01/01 06:13:32;;;;;;;3.50;2.50;;;17.30;61.50;18.50;100571.00;;;;5008349;28;20207;-48
2023/01/01 06:15:59;;;;;;;4.53;2.70;;;17.20;60.90;18.40;100492.00;;;;5009121;28;20168;-48
2023/01/01 06:18:25;;;;;;;4.27;2.40;;;17.20;60.90;18.40;100495.00;;;;4992192;28;20234;-47
2023/01/01 06:20:51;;;;;;;3.70;2.53;;;17.20;58.70;18.40;100553.00;;;;5008661;28;20169;-48
2023/01/01 06:23:17;;;;;;;4.80;2.40;;;17.10;60.10;18.30;100550.00;;;;5008397;28;20260;-47
2023/01/01 06:25:43;;;;;;;4.20;2.60;;;17.10;60.10;18.30;100541.00;;;;5007934;28;20685;-47
2023/01/01 06:28:08;;;;;;;3.40;2.50;;;17.10;60.00;18.30;100562.00;;;;4991452;28;20228;-48
2023/01/01 06:30:35;;;;;;;5.70;2.60;;;17.10;59.80;18.30;100551.00;;;;5008055;28;20265;-48
2023/01/01 06:33:01;;;;;;;3.17;2.60;;;17.00;58.90;18.20;100547.00;;;;5006976;28;20681;-48
2023/01/01 06:35:27;;;;;;;5.43;2.70;;;17.10;59.20;18.20;100552.00;;;;5008051;28;20232;-53
2023/01/01 06:37:53;;;;;;;4.30;2.63;;;17.10;59.40;18.20;100564.00;;;;5008012;28;20185;-48
2023/01/01 06:40:19;;;;;;;4.07;2.30;;;17.00;58.70;18.20;100485.00;;;;5008062;28;20226;-48
2023/01/01 06:42:44;;;;;;;4.07;2.50;;;17.10;59.00;18.20;100561.00;;;;4990274;28;20803;-47
2023/01/01 06:45:12;;;;;;;4.93;2.50;;;17.00;59.10;18.10;100493.00;;;;5007596;28;20177;-48
2023/01/01 06:47:37;;;;;;;5.77;2.73;;;17.00;58.80;18.10;100492.00;;;;5008171;28;20196;-47
2023/01/01 06:50:04;;;;;;;4.50;2.60;;;17.00;58.90;18.10;100576.00;;;;5008345;28;20184;-48
2023/01/01 06:52:29;;;;;;;4.93;2.30;;;17.00;59.40;18.10;100587.00;;;;4990370;28;20677;-47
2023/01/01 06:54:55;;;;;;;4.20;2.40;;;17.00;59.20;18.10;100588.00;;;;4991370;28;20216;-48
2023/01/01 06:57:21;;;;;;;4.20;2.70;;;17.00;59.20;18.10;100588.00;;;;4991852;28;20259;-47
2023/01/01 06:59:47;;;;;;;2.70;2.17;;;17.00;59.70;18.10;100518.00;;;;5001413;28;20426;-47
2023/01/01 07:02:12;;;;;;;4.60;2.50;;;17.00;58.70;18.10;100600.00;;;;5015412;28;20619;-48
2023/01/01 07:04:38;;;;;;;4.53;2.60;;;17.00;58.90;18.00;100615.00;;;;4996811;28;20227;-47
2023/01/01 07:07:04;;;;;;;3.57;2.50;;;17.00;58.70;18.00;100607.00;;;;5012147;28;20256;-47
2023/01/01 07:09:30;;;;;;;3.47;2.60;;;17.00;58.50;18.00;100607.00;;;;5007407;28;20177;-47
2023/01/01 07:11:55;;;;;;;3.93;2.73;;;17.00;58.50;18.00;100618.00;;;;4990867;28;20170;-48
2023/01/01 07:14:21;;;;;;;4.70;2.40;;;17.00;58.20;18.00;100628.00;;;;5009252;28;20191;-48
2023/01/01 07:16:47;;;;;;;4.00;2.37;;;17.00;58.40;18.00;100628.00;;;;5013130;28;20512;-48
2023/01/01 07:19:13;;;;;;;4.33;2.50;;;17.00;58.30;18.00;100644.00;;;;5011023;28;20816;-47
2023/01/01 07:21:52;;;;;;;2.63;2.30;;;17.00;58.00;18.00;100630.00;;;;4993876;28;20174;-47
2023/01/01 07:24:17;;;;;;;4.07;2.60;;;17.00;58.20;18.00;100631.00;;;;4984531;28;20205;-48
2023/01/01 07:26:44;;;;;;;5.27;2.70;;;16.90;58.40;18.00;100640.00;;;;4988148;28;20183;-48
2023/01/01 07:29:10;;;;;;;3.43;2.43;;;16.90;58.40;18.00;100641.00;;;;4996168;28;20589;-48
2023/01/01 07:31:38;;;;;;;4.67;2.40;;;16.90;58.30;17.90;100640.00;;;;4993263;28;20172;-48
2023/01/01 07:34:05;;;;;;;5.70;2.53;;;16.90;58.40;17.90;100652.00;;;;4975434;28;20205;-47
2023/01/01 07:36:31;;;;;;;5.30;2.57;;;16.90;58.40;17.90;100657.00;;;;4991081;28;20165;-48
2023/01/01 07:38:57;;;;;;;3.67;2.60;;;16.90;58.40;17.90;100659.00;;;;4991044;28;20194;-47
2023/01/01 07:41:23;;;;;;;3.93;2.40;;;16.90;58.40;17.90;100595.00;;;;5008211;28;20172;-49
2023/01/01 07:43:49;;;;;;;3.97;2.67;;;16.90;58.30;17.90;100686.00;;;;4991234;28;20734;-49
2023/01/01 07:46:15;;;;;;;4.33;2.70;;;16.90;58.40;17.90;100673.00;;;;4991010;28;20174;-48
2023/01/01 07:48:41;;;;;;;5.07;2.90;;;16.90;58.30;17.90;100680.00;;;;5007918;28;20170;-49
2023/01/01 07:51:07;;;;;;;3.07;2.60;;;16.90;58.40;17.90;100686.00;;;;5007587;28;20653;-48
2023/01/01 07:53:33;;;;;;;4.33;2.60;;;16.90;58.40;17.80;100682.00;;;;5006046;28;20197;-48
2023/01/01 07:55:58;;;;;;;4.23;2.70;;;16.90;58.40;17.80;100622.00;;;;5007395;28;20179;-47
2023/01/01 07:58:24;;;;;;;5.37;2.70;;;16.90;58.40;17.80;100641.00;;;;5007287;28;20231;-47
2023/01/01 08:00:50;;;;;;;4.47;2.50;;;16.90;58.50;17.80;100701.00;;;;5007320;28;20168;-47
2023/01/01 08:03:16;;;;;;;5.60;2.80;;;16.90;58.60;17.80;100700.00;;;;4989951;28;20199;-48
2023/01/01 08:05:42;;;;;;;4.00;2.73;;;16.90;58.50;17.80;100620.00;;;;4992703;28;20172;-47
2023/01/01 08:08:09;;;;;;;5.53;2.60;;;16.80;58.50;17.80;100640.00;;;;5007855;28;20271;-48
2023/01/01 08:10:34;;;;;;;5.23;2.67;;;16.80;58.50;17.80;100714.00;;;;4979034;28;20174;-48
2023/01/01 08:13:02;;;;;;;5.07;2.57;;;16.80;58.40;17.80;100617.00;;;;4995928;28;20740;-47
2023/01/01 08:15:27;;;;;;;3.57;2.60;;;16.90;58.50;17.80;100702.00;;;;4990591;28;20204;-48
2023/01/01 08:18:01;;;;;;;5.00;2.70;;;16.80;58.50;17.80;100688.00;;;;4991582;28;20247;-47
2023/01/01 08:20:28;;;;;;;4.53;2.60;;;16.80;58.70;17.80;100701.00;;;;4975387;28;20169;-50
2023/01/01 08:22:54;;;;;;;6.70;2.80;;;16.80;58.50;17.80;100708.00;;;;4992020;28;20188;-48
2023/01/01 08:25:19;;;;;;;6.63;2.70;;;16.80;58.70;17.80;100648.00;;;;4984749;28;20176;-46
2023/01/01 08:27:45;;;;;;;4.10;2.50;;;16.80;58.90;17.80;100720.00;;;;4989777;28;20172;-48
2023/01/01 08:30:12;;;;;;;3.77;2.40;;;16.80;59.00;17.80;100709.00;;;;4990362;28;20815;-47
2023/01/01 08:32:38;;;;;;;5.27;2.70;;;16.80;59.10;17.80;100711.00;;;;4990906;28;20170;-48
2023/01/01 08:35:05;;;;;;;4.13;2.53;;;16.80;59.00;17.80;100717.00;;;;4990908;28;20187;-48
2023/01/01 08:37:31;;;;;;;4.80;2.43;;;16.70;59.10;17.80;100726.00;;;;4991880;28;20200;-49
2023/01/01 08:39:57;;;;;;;5.67;2.60;;;16.70;59.10;17.80;100718.00;;;;4991056;28;20149;-49
2023/01/01 08:42:23;;;;;;;4.20;2.53;;;16.70;59.10;17.70;100713.00;;;;4989887;28;20533;-48
2023/01/01 08:44:50;;;;;;;4.87;2.80;;;16.70;59.00;17.70;100722.00;;;;4992892;28;20197;-48
2023/01/01 08:47:22;;;;;;;6.23;2.60;;;16.70;59.60;17.70;100732.00;;;;5000094;28;20251;-49
2023/01/01 08:49:48;;;;;;;7.23;2.80;;;16.70;59.00;17.70;100588.00;;;;4983541;28;20635;-49
2023/01/01 08:52:14;;;;;;;4.43;2.40;;;16.70;58.90;17.70;100739.00;;;;4999611;28;20192;-49
2023/01/01 08:54:40;;;;;;;4.57;2.53;;;16.70;58.90;17.70;100733.00;;;;4999266;28;20733;-50
2023/01/01 08:57:06;;;;;;;5.33;2.83;;;16.70;59.00;17.70;100671.00;;;;4992258;28;20177;-47
2023/01/01 08:59:32;;;;;;;6.50;2.70;;;16.70;59.10;17.70;100765.00;;;;4973556;28;20171;-48
2023/01/01 09:01:59;;;;;;;5.67;2.53;;;16.70;59.20;17.70;100755.00;;;;4990801;28;20638;-48
2023/01/01 09:04:25;;;;;;;5.63;2.60;;;16.70;59.30;17.70;100713.00;;;;4988895;28;20196;-47
2023/01/01 09:06:51;;;;;;;6.33;2.97;;;16.70;59.30;17.70;100718.00;;;;4991797;28;20321;-49
2023/01/01 09:09:18;;;;;;;3.80;2.40;;;16.60;59.20;17.70;100693.00;;;;4986667;28;20264;-47
2023/01/01 09:11:51;;;;;;;4.27;2.50;;;16.60;59.20;17.70;100777.00;;;;4987560;28;20189;-47
2023/01/01 09:14:18;;;;;;;3.97;2.53;;;16.60;59.30;17.70;100756.00;;;;4974402;28;20226;-47
2023/01/01 09:16:44;;;;;;;4.10;2.67;;;16.60;59.30;17.70;100702.00;;;;4999767;28;20183;-46
2023/01/01 09:19:09;;;;;;;4.83;2.30;;;16.60;59.30;17.70;100794.00;;;;4991485;28;20217;-49
2023/01/01 09:21:35;;;;;;;7.40;2.43;;;16.60;60.00;17.70;100800.00;;;;4996571;28;20181;-48
2023/01/01 09:24:01;;;;;;;5.33;2.93;;;16.60;59.40;17.60;100791.00;;;;5004138;28;20207;-48
2023/01/01 09:26:27;;;;;;;4.07;2.23;;;16.60;59.50;17.60;100812.00;;;;5005465;28;20546;-49
2023/01/01 09:28:52;;;;;;;4.30;2.40;;;16.70;59.60;17.60;100821.00;;;;5008814;28;20171;-47
2023/01/01 09:31:18;;;;;;;4.33;2.50;;;16.70;59.50;17.60;100817.00;;;;5008230;28;20169;-48
2023/01/01 09:33:44;;;;;;;7.37;2.40;;;16.60;59.60;17.40;100814.00;;;;5004710;28;20214;-47
2023/01/01 09:36:26;;;;;;;6.63;2.80;;;16.60;59.70;17.60;100824.00;;;;5002533;28;21034;-47
2023/01/01 09:38:52;;;;;;;5.97;2.50;;;16.60;59.80;17.60;100818.00;;;;5009558;28;20222;-49
2023/01/01 09:41:52;;;;;;;5.33;2.57;;;16.60;59.90;17.60;100822.00;;;;5008444;28;20807;-48
2023/01/01 09:45:04;;;;;;;5.43;2.80;;;16.60;60.20;17.60;100816.00;;;;5010582;28;20187;-49
2023/01/01 09:47:55;;;;;;;4.47;2.40;;;16.60;60.40;17.60;100826.00;;;;5010317;28;20159;-48
2023/01/01 09:50:40;;;;;;;5.80;2.80;;;16.60;60.40;17.60;100821.00;;;;5003334;28;20234;-47
2023/01/01 09:53:19;;;;;;;5.03;2.33;;;16.60;60.40;17.60;100836.00;;;;5008959;28;20649;-49
2023/01/01 09:56:02;;;;;;;5.27;2.73;;;16.60;61.10;17.60;100835.00;;;;5015347;28;20262;-49
2023/01/01 09:58:33;;;;;;;4.10;2.33;;;16.60;60.70;17.60;100850.00;;;;5015459;28;20719;-49
2023/01/01 10:01:33;;;;;;;3.90;2.50;;;16.60;60.80;17.60;100850.00;;;;4994938;28;20156;-49
2023/01/01 10:04:23;;;;;;;4.10;2.77;;;16.60;60.90;17.60;100837.00;;;;5016241;28;20229;-48
2023/01/01 10:07:36;;;;;;;6.50;2.77;;;16.50;60.70;17.60;100839.00;;;;5013844;28;20217;-48
2023/01/01 10:10:23;;;;;;;6.07;2.57;;;16.50;60.70;17.50;100844.00;;;;5001572;28;20195;-48
2023/01/01 10:13:24;;;;;;;8.83;2.63;;;16.50;60.80;17.60;100843.00;;;;4999812;28;20179;-47
2023/01/01 10:16:03;;;;;;;5.40;2.53;;;16.50;60.90;17.60;100830.00;;;;5001920;28;20186;-47
2023/01/01 10:18:36;;;;;;;8.17;2.47;;;16.60;60.90;17.60;100843.00;;;;5009011;28;20341;-49
2023/01/01 10:21:09;;;;;;;8.53;2.53;;;16.70;60.70;17.70;100846.00;;;;5009185;28;20156;-49
2023/01/01 10:23:45;;;;;;;8.30;2.60;;;16.80;60.80;17.70;100830.00;;;;5008373;28;20569;-48
2023/01/01 10:26:20;;;;;;;4.37;2.43;;;16.80;60.60;17.70;100835.00;;;;5002062;28;20169;-48
2023/01/01 10:29:03;;;;;;;5.27;2.50;;;16.90;61.90;17.80;100756.00;;;;4997753;28;20180;-47
2023/01/01 10:31:33;;;;;;;6.00;2.57;;;16.90;60.90;17.80;100829.00;;;;4999335;28;20759;-47
2023/01/01 10:34:02;;;;;;;3.90;2.33;;;16.90;60.70;17.80;100828.00;;;;4988502;28;20192;-48
2023/01/01 10:36:28;;;;;;;5.77;2.50;;;16.90;60.70;17.90;100812.00;;;;5005584;28;20533;-46
2023/01/01 10:38:53;;;;;;;4.50;2.43;;;16.90;60.90;17.90;100811.00;;;;5008718;28;20208;-47
2023/01/01 10:41:19;;;;;;;6.03;2.50;;;17.00;60.90;17.90;100746.00;;;;5007474;28;20172;-46
2023/01/01 10:43:45;;;;;;;7.33;2.70;;;17.00;61.90;17.90;100740.00;;;;4984817;28;20207;-47
2023/01/01 10:46:14;;;;;;;5.07;2.40;;;17.10;61.90;17.90;100812.00;;;;4982910;28;20174;-47
2023/01/01 10:48:41;;;;;;;5.40;2.30;;;17.00;61.70;17.90;100731.00;;;;4998082;28;20188;-47
2023/01/01 10:51:14;;;;;;;4.03;2.47;;;17.00;62.10;17.90;100805.00;;;;5006134;28;20173;-46
2023/01/01 10:53:49;;;;;;;5.00;2.40;;;17.10;61.90;17.90;100805.00;;;;5009104;28;20200;-48
2023/01/01 10:56:21;;;;;;;6.30;2.60;;;17.00;62.00;17.90;100803.00;;;;5007228;28;20230;-47
2023/01/01 10:58:54;;;;;;;3.90;2.47;;;17.00;61.90;17.90;100793.00;;;;4992297;28;20207;-47
2023/01/01 11:01:24;;;;;;;3.80;2.30;;;17.00;61.90;17.90;100797.00;;;;5008343;28;20164;-48
2023/01/01 11:04:00;;;;;;;4.93;2.20;;;17.00;61.80;17.90;100742.00;;;;5008679;28;20242;-47